createdAt,value
2019-03-27T00:03:21.286Z,142621.09
2019-03-27T00:08:18.066Z,142589.50
2019-03-27T00:13:14.018Z,142654.94
2019-03-27T00:18:10.133Z,142567.31
2019-03-27T00:23:06.049Z,142542.81
2019-03-27T00:28:01.967Z,142493.73
2019-03-27T00:32:57.894Z,142443.52
2019-03-27T00:37:53.811Z,142436.47
2019-03-27T00:42:49.727Z,142429.48
2019-03-27T00:47:45.732Z,142415.48
2019-03-27T00:52:41.646Z,142503.08
2019-03-27T00:57:37.569Z,142450.52
2019-03-27T01:02:33.493Z,142394.45
2019-03-27T01:07:29.492Z,142513.58
2019-03-27T01:12:25.417Z,142505.42
2019-03-27T01:17:21.388Z,142567.31
2019-03-27T01:22:17.317Z,142567.31
2019-03-27T01:27:13.235Z,142508.92
2019-03-27T01:32:09.152Z,142438.81
2019-03-27T01:37:05.230Z,142438.81
2019-03-27T01:42:01.149Z,142417.84
2019-03-27T01:46:57.062Z,142399.16
2019-03-27T01:51:53.081Z,142360.59
2019-03-27T01:56:49.073Z,142500.73
2019-03-27T02:01:44.996Z,142597.69
2019-03-27T02:06:43.543Z,142576.66
2019-03-27T02:11:39.559Z,142579.00
2019-03-27T02:16:35.473Z,142520.56
2019-03-27T02:21:31.384Z,142434.17
2019-03-27T02:26:27.305Z,142428.33
2019-03-27T02:31:23.398Z,142408.50
2019-03-27T02:36:19.316Z,142452.86
2019-03-27T02:41:15.234Z,142518.27
2019-03-27T02:46:23.689Z,142429.48
2019-03-27T02:51:08.988Z,142393.31
2019-03-27T02:56:05.074Z,142395.61
2019-03-27T03:01:00.992Z,142388.61
2019-03-27T03:05:56.915Z,142366.44
2019-03-27T03:10:52.870Z,142350.11
2019-03-27T03:15:48.787Z,142392.11
2019-03-27T03:20:44.730Z,142340.77
2019-03-27T03:25:40.683Z,142375.78
2019-03-27T03:30:36.632Z,142387.47
2019-03-27T03:35:32.589Z,142420.14
2019-03-27T03:40:28.516Z,142364.09
2019-03-27T03:45:24.446Z,142361.78
2019-03-27T03:50:40.906Z,142366.44
2019-03-27T03:55:37.506Z,142359.44
2019-03-27T04:00:33.554Z,142504.22
2019-03-27T04:05:29.477Z,142425.98
2019-03-27T04:10:25.523Z,142385.13
2019-03-27T04:15:21.542Z,142390.97
2019-03-27T04:20:17.475Z,142567.31
2019-03-27T04:25:14.947Z,142487.89
2019-03-27T04:30:11.882Z,142448.16
2019-03-27T04:35:10.609Z,142478.55
2019-03-27T04:40:08.782Z,142469.19
2019-03-27T04:45:05.663Z,142475.05
2019-03-27T04:50:03.753Z,142498.38
2019-03-27T04:55:00.503Z,142458.70
2019-03-27T04:59:56.394Z,142492.53
2019-03-27T05:04:52.731Z,142560.31
2019-03-27T05:09:48.647Z,142665.48
2019-03-27T05:14:44.598Z,142597.69
2019-03-27T05:19:40.621Z,142594.19
2019-03-27T05:24:37.330Z,142679.50
2019-03-27T05:29:33.218Z,142705.25
2019-03-27T05:34:29.177Z,142670.14
2019-03-27T05:39:25.118Z,142651.44
2019-03-27T05:44:21.048Z,142637.44
2019-03-27T05:49:16.967Z,142667.84
2019-03-27T05:54:16.456Z,142677.19
2019-03-27T05:59:12.479Z,142693.55
2019-03-27T06:04:08.407Z,142700.55
2019-03-27T06:09:04.933Z,142718.09
2019-03-27T06:14:00.863Z,142740.34
2019-03-27T06:18:56.777Z,142787.13
2019-03-27T06:23:53.361Z,142750.84
2019-03-27T06:28:49.284Z,142721.59
2019-03-27T06:33:45.223Z,142773.06
2019-03-27T06:38:41.142Z,142716.91
2019-03-27T06:43:37.158Z,142768.41
2019-03-27T06:48:33.070Z,142720.41
2019-03-27T06:53:28.989Z,142775.41
2019-03-27T06:58:25.016Z,142756.70
2019-03-27T07:03:20.931Z,142742.66
2019-03-27T07:08:16.865Z,142742.66
2019-03-27T07:13:12.796Z,142780.06
2019-03-27T07:18:08.802Z,142803.48
2019-03-27T07:23:04.724Z,142830.39
2019-03-27T07:28:00.655Z,142831.55
2019-03-27T07:32:56.577Z,142860.77
2019-03-27T07:37:52.507Z,142851.41
2019-03-27T07:42:48.468Z,142838.55
2019-03-27T07:47:44.443Z,142865.47
2019-03-27T07:52:40.366Z,142906.41
2019-03-27T07:57:36.365Z,142941.48
2019-03-27T08:02:32.345Z,142922.77
2019-03-27T08:07:28.292Z,142950.84
2019-03-27T08:12:24.208Z,143011.72
2019-03-27T08:17:20.241Z,142982.44
2019-03-27T08:22:16.179Z,143067.84
2019-03-27T08:27:14.566Z,143074.91
2019-03-27T08:32:10.068Z,143042.11
2019-03-27T08:37:05.988Z,143088.94
2019-03-27T08:42:01.909Z,143147.47
2019-03-27T08:46:57.849Z,143024.59
2019-03-27T08:51:53.770Z,143094.78
2019-03-27T08:56:49.711Z,143135.77
2019-03-27T09:01:45.739Z,143218.91
2019-03-27T09:06:41.648Z,143198.98
2019-03-27T09:11:37.572Z,143286.81
2019-03-27T09:16:33.487Z,143266.91
2019-03-27T09:21:29.414Z,143126.39
2019-03-27T09:26:25.519Z,143177.94
2019-03-27T09:31:21.440Z,143189.61
2019-03-27T09:36:17.425Z,143263.41
2019-03-27T09:41:13.344Z,143289.17
2019-03-27T09:46:12.093Z,143564.63
2019-03-27T09:51:10.950Z,143576.36
2019-03-27T09:56:18.436Z,143447.41
2019-03-27T10:01:12.175Z,143518.88
2019-03-27T10:11:26.048Z,143550.58
2019-03-27T10:16:22.073Z,143445.06
2019-03-27T10:21:18.098Z,143552.89
2019-03-27T10:26:14.110Z,143578.72
2019-03-27T10:31:10.062Z,143679.56
2019-03-27T10:36:06.012Z,143522.44
2019-03-27T10:41:01.924Z,143562.27
2019-03-27T10:46:02.990Z,143597.47
2019-03-27T10:50:59.414Z,143658.44
2019-03-27T10:55:55.380Z,143781.66
2019-03-27T11:00:51.310Z,143815.69
2019-03-27T11:05:47.243Z,143754.69
2019-03-27T11:10:43.151Z,143740.59
2019-03-27T11:15:39.075Z,143718.27
2019-03-27T11:20:35.617Z,143806.30
2019-03-27T11:25:33.274Z,143747.63
2019-03-27T11:30:53.849Z,143806.30
2019-03-27T11:35:51.708Z,143800.44
2019-03-27T11:40:48.528Z,143808.66
2019-03-27T11:45:44.549Z,144035.22
2019-03-27T11:50:45.083Z,143996.48
2019-03-27T11:55:38.342Z,143893.16
2019-03-27T12:00:34.254Z,143721.77
2019-03-27T12:05:30.170Z,143829.80
2019-03-27T12:10:26.086Z,143857.97
2019-03-27T12:15:36.755Z,143860.28
2019-03-27T12:20:32.734Z,143843.84
2019-03-27T12:25:28.644Z,143880.25
2019-03-27T12:30:24.556Z,143965.94
2019-03-27T12:35:20.642Z,143954.19
2019-03-27T12:40:16.554Z,143968.30
2019-03-27T12:45:12.570Z,143947.16
2019-03-27T12:50:08.893Z,144098.67
2019-03-27T12:55:05.018Z,144008.19
2019-03-27T13:00:01.071Z,143947.16
2019-03-27T13:04:57.075Z,143846.22
2019-03-27T13:09:52.989Z,143869.66
2019-03-27T13:14:50.485Z,143984.72
2019-03-27T13:19:46.615Z,144172.70
2019-03-27T13:24:43.227Z,143987.09
2019-03-27T13:29:39.363Z,143977.69
2019-03-27T13:34:35.349Z,143980.00
2019-03-27T13:39:32.306Z,144103.41
2019-03-27T13:44:36.821Z,144043.45
2019-03-27T13:49:26.179Z,143989.41
2019-03-27T13:54:25.193Z,143982.38
2019-03-27T13:59:21.829Z,144026.98
2019-03-27T14:04:17.760Z,144095.11
2019-03-27T14:09:15.305Z,144005.88
2019-03-27T14:14:13.021Z,144092.75
2019-03-27T14:19:09.048Z,144052.84
2019-03-27T14:24:08.991Z,143991.77
2019-03-27T14:29:05.110Z,143989.41
2019-03-27T14:34:01.030Z,144045.77
2019-03-27T14:38:56.939Z,144075.16
2019-03-27T14:43:52.958Z,144019.94
2019-03-27T14:48:48.909Z,144019.94
2019-03-27T14:53:52.028Z,144026.98
2019-03-27T14:58:49.125Z,144044.61
2019-03-27T15:03:45.156Z,144097.52
2019-03-27T15:08:42.365Z,143980.00
2019-03-27T15:13:38.986Z,144073.97
2019-03-27T15:18:35.176Z,143972.97
2019-03-27T15:23:35.620Z,144022.31
2019-03-27T15:28:32.075Z,144009.39
2019-03-27T15:33:30.682Z,144051.66
2019-03-27T15:38:26.709Z,144098.67
2019-03-27T15:43:22.617Z,144082.20
2019-03-27T15:48:18.542Z,144030.55
2019-03-27T15:53:14.445Z,143981.22
2019-03-27T15:58:10.361Z,144008.19
2019-03-27T16:03:09.771Z,144016.42
2019-03-27T16:08:14.082Z,143977.69
2019-03-27T16:13:11.024Z,143988.25
2019-03-27T16:18:09.002Z,144015.27
2019-03-27T16:23:05.588Z,144003.52
2019-03-27T16:28:02.497Z,143989.41
2019-03-27T16:33:02.364Z,144015.27
2019-03-27T16:37:59.149Z,143988.25
2019-03-27T16:42:56.542Z,144022.31
2019-03-27T16:47:52.558Z,144029.34
2019-03-27T16:52:48.502Z,144034.06
2019-03-27T16:57:44.411Z,143987.09
2019-03-27T17:02:40.330Z,143961.22
2019-03-27T17:07:36.367Z,143963.58
2019-03-27T17:12:32.518Z,143982.38
2019-03-27T17:17:28.425Z,143930.72
2019-03-27T17:22:24.452Z,143921.34
2019-03-27T17:27:20.664Z,143913.09
2019-03-27T17:32:16.581Z,143923.69
2019-03-27T17:37:12.572Z,143946.00
2019-03-27T17:42:08.503Z,143958.91
2019-03-27T17:47:04.428Z,143970.61
2019-03-27T17:52:01.180Z,143951.83
2019-03-27T17:56:57.840Z,143909.59
2019-03-27T18:01:53.751Z,143923.69
2019-03-27T18:06:49.663Z,143934.25
2019-03-27T18:11:46.435Z,143961.22
2019-03-27T18:16:42.532Z,143850.89
2019-03-27T18:21:38.444Z,143861.47
2019-03-27T18:26:36.409Z,143796.91
2019-03-27T18:31:33.310Z,143757.00
2019-03-27T18:36:30.234Z,143760.56
2019-03-27T18:41:27.341Z,143793.39
2019-03-27T18:46:23.352Z,143757.00
2019-03-27T18:51:20.360Z,143726.48
2019-03-27T18:56:16.382Z,143728.80
2019-03-27T19:01:13.414Z,143700.64
2019-03-27T19:06:10.260Z,143686.59
2019-03-27T19:11:07.089Z,143686.59
2019-03-27T19:16:03.273Z,143688.95
2019-03-27T19:20:59.208Z,143665.47
2019-03-27T19:25:55.132Z,143822.72
2019-03-27T19:30:51.087Z,143865.00
2019-03-27T19:35:47.170Z,143850.89
2019-03-27T19:40:43.901Z,143808.66
2019-03-27T19:45:40.054Z,143776.98
2019-03-27T19:50:36.092Z,143787.53
2019-03-27T19:55:32.737Z,143724.12
2019-03-27T20:00:28.654Z,143627.94
2019-03-27T20:05:24.609Z,143606.86
2019-03-27T20:10:20.627Z,143574.00
2019-03-27T20:15:16.656Z,143530.61
2019-03-27T20:20:12.997Z,143623.27
2019-03-27T20:25:14.579Z,143550.58
2019-03-27T20:30:16.278Z,143663.11
2019-03-27T20:35:13.571Z,143599.78
2019-03-27T20:40:10.869Z,143583.37
2019-03-27T20:45:08.404Z,143598.62
2019-03-27T20:50:06.055Z,143566.98
2019-03-27T20:55:04.745Z,143674.84
2019-03-27T21:00:00.956Z,143780.50
2019-03-27T21:04:59.407Z,143808.66
2019-03-27T21:09:55.480Z,143754.69
2019-03-27T21:14:51.456Z,143759.36
2019-03-27T21:19:47.433Z,143684.23
2019-03-27T21:24:44.212Z,143610.38
2019-03-27T21:29:40.098Z,143543.50
2019-03-27T21:34:36.014Z,143557.59
2019-03-27T21:39:32.013Z,143521.23
2019-03-27T21:44:27.931Z,143508.34
2019-03-27T21:49:23.911Z,143508.34
2019-03-27T21:54:22.980Z,143515.38
2019-03-27T21:59:18.866Z,143520.08
2019-03-27T22:04:14.802Z,143504.84
2019-03-27T22:09:10.807Z,143494.30
2019-03-27T22:14:06.831Z,143491.94
2019-03-27T22:19:02.888Z,143487.23
2019-03-27T22:24:10.100Z,143487.23
2019-03-27T22:29:06.254Z,143489.59
2019-03-27T22:34:02.235Z,143494.30
2019-03-27T22:38:58.123Z,143475.55
2019-03-27T22:43:54.041Z,143473.19
2019-03-27T22:48:50.019Z,143497.81
2019-03-27T22:53:47.659Z,143515.38
2019-03-27T22:58:43.675Z,143489.59
2019-03-27T23:03:42.020Z,143470.84
2019-03-27T23:08:38.107Z,143461.45
2019-03-27T23:13:34.072Z,143463.81
2019-03-27T23:18:29.992Z,143456.78
2019-03-27T23:23:25.957Z,143461.45
2019-03-27T23:28:21.993Z,143456.78
2019-03-27T23:33:20.222Z,143432.17
2019-03-27T23:38:15.780Z,143426.31
2019-03-27T23:43:11.715Z,143427.47
2019-03-27T23:48:07.682Z,143428.66
2019-03-27T23:53:03.613Z,143428.66
2019-03-27T23:57:59.546Z,143427.47
